Latest Weather Observations for Hervey Bay

IDQ60801

Issued at 8:02 pm EST Saturday 23 May 2015 (issued every 30 minutes, with the page automatically refreshed every 10 minutes)

About weather observations | Map of weather stations | Latest weather observations for QLD | Other Formats
Station Details ID: 040405 Name: HERVEY BAY AIRPORT Lat: -25.32 Lon: 152.88 Height: 12.98 m
Data from the previous 72 hours. | See also: Recent months at Hervey Bay
Date/Time
EST
Temp
°C
App
Temp
°C
Dew
Point
Rel
Hum
%
Delta-T
°C
Wind Press
QNH
hPa
Press
MSL
hPa
Rain
since 9 am
mm
Dir
 
Spd
km/h
Gust
km/h
Spd
kts
Gust
kts
23/08:00pm 17.9 15.3 11.9 68 3.3 SSW 17 26 9 14 1023.7 1023.6 0.0
23/07:30pm 17.7 15.4 11.7 68 3.3 S 15 22 8 12 1023.4 1023.3 0.0
23/07:00pm 17.8 15.5 11.8 68 3.3 SSW 15 24 8 13 1023.2 1023.1 0.0
23/06:30pm 18.0 16.2 12.2 69 3.2 SSW 13 20 7 11 1023.0 1022.9 0.0
23/06:00pm 18.9 16.9 12.6 67 3.5 S 15 20 8 11 1022.8 1022.7 0.0
23/05:30pm 19.3 16.7 12.1 63 4.0 S 17 30 9 16 1022.5 1022.4 0.0
23/05:00pm 19.8 16.9 12.3 62 4.2 S 19 28 10 15 1022.2 1022.1 0.0
23/04:30pm 20.3 17.3 12.5 61 4.4 S 20 33 11 18 1021.8 1021.7 0.0
23/04:00pm 20.8 17.0 12.5 59 4.7 S 24 43 13 23 1021.6 1021.5 0.0
23/03:30pm 21.2 17.6 13.1 60 4.6 S 24 41 13 22 1021.5 1021.4 0.0
23/03:00pm 21.5 18.7 13.2 59 4.7 S 20 37 11 20 1021.1 1021.0 0.0
23/02:30pm 21.5 17.8 12.6 57 5.0 S 24 37 13 20 1021.0 1020.9 0.0
23/02:00pm 21.4 17.8 13.1 59 4.7 S 24 41 13 22 1021.0 1020.9 0.0
23/01:30pm 21.7 18.2 13.3 59 4.8 S 24 43 13 23 1021.0 1020.9 0.0
23/01:00pm 21.4 17.4 13.1 59 4.7 S 26 43 14 23 1021.1 1021.0 0.0
23/12:30pm 22.0 19.3 13.4 58 5.0 S 20 35 11 19 1021.4 1021.3 0.0
23/12:00pm 21.7 18.2 13.3 59 4.8 SSE 24 39 13 21 1021.5 1021.4 0.0
23/11:30am 21.6 17.3 13.2 59 4.8 S 28 44 15 24 1021.6 1021.5 0.0
23/10:52am 20.4 15.8 12.4 60 4.5 S 28 46 15 25 1021.8 1021.7 0.0
23/10:30am 20.2 16.3 12.2 60 4.5 S 24 37 13 20 1021.8 1021.7 0.0
23/10:00am 19.6 15.5 11.6 60 4.4 S 24 39 13 21 1021.7 1021.6 0.0
23/09:30am 18.4 14.6 11.0 62 4.0 S 22 35 12 19 1021.4 1021.3 0.0
23/09:00am 17.4 14.1 10.8 65 3.5 SSW 19 33 10 18 1021.4 1021.3 0.2
23/08:30am 15.6 11.9 10.2 70 2.8 SSW 20 28 11 15 1021.2 1021.1 0.2
23/08:00am 14.5 11.7 10.1 75 2.3 SSW 15 19 8 10 1021.0 1020.9 0.2
23/07:30am 13.3 10.7 9.5 78 1.9 SW 13 19 7 10 1020.7 1020.6 0.2
23/07:00am 12.1 9.5 9.5 84 1.3 SSW 13 19 7 10 1020.3 1020.2 0.2
23/06:30am 11.6 9.0 9.2 85 1.2 SSW 13 19 7 10 1020.0 1019.9 0.2
23/06:00am 11.1 8.8 9.0 87 1.0 SSW 11 15 6 8 1019.6 1019.5 0.2
23/05:30am 11.2 8.9 8.9 86 1.1 SSW 11 17 6 9 1019.2 1019.1 0.2
23/05:00am 11.5 8.8 9.1 85 1.2 SSW 13 19 7 10 1018.8 1018.7 0.2
23/04:30am 11.9 8.9 9.3 84 1.3 SSW 15 22 8 12 1018.6 1018.5 0.2
23/04:00am 11.8 8.7 9.0 83 1.4 SW 15 19 8 10 1018.6 1018.5 0.2
23/03:30am 11.7 8.6 8.9 83 1.4 SW 15 26 8 14 1018.7 1018.6 0.2
23/03:00am 11.7 8.5 8.4 80 1.6 SW 15 20 8 11 1018.9 1018.8 0.2
23/02:30am 11.7 8.1 8.2 79 1.7 SW 17 24 9 13 1018.9 1018.8 0.2
23/02:00am 11.4 8.5 8.1 80 1.6 SW 13 17 7 9 1019.2 1019.1 0.2
23/01:30am 11.3 8.4 8.0 80 1.6 SW 13 15 7 8 1019.6 1019.5 0.2
23/01:00am 11.1 9.3 8.0 81 1.5 SW 7 11 4 6 1019.8 1019.7 0.2
23/12:30am 11.9 9.0 8.0 77 1.9 WSW 13 19 7 10 1019.7 1019.6 0.2
23/12:00am 11.2 8.9 7.5 78 1.8 WSW 9 13 5 7 1019.8 1019.7 0.2
 
Date/Time
EST
Temp
°C
App
Temp
°C
Dew
Point
Rel
Hum
%
Delta-T
°C
Wind Press
QNH
hPa
Press
MSL
hPa
Rain
since 9 am
mm
Dir
 
Spd
km/h
Gust
km/h
Spd
kts
Gust
kts
22/11:30pm 11.9 9.3 7.6 75 2.1 WSW 11 17 6 9 1020.0 1019.9 0.2
22/11:00pm 12.0 9.0 7.5 74 2.2 WSW 13 17 7 9 1020.1 1020.0 0.2
22/10:30pm 12.0 9.4 7.7 75 2.1 WSW 11 17 6 9 1020.3 1020.2 0.2
22/10:00pm 11.7 9.0 7.4 75 2.1 W 11 15 6 8 1020.1 1020.0 0.2
22/09:30pm 11.6 8.9 7.5 76 2.0 WSW 11 17 6 9 1020.1 1020.0 0.2
22/09:00pm 11.7 9.0 7.4 75 2.1 WSW 11 15 6 8 1019.9 1019.8 0.2
22/08:30pm 12.6 10.7 7.5 71 2.5 W 7 11 4 6 1020.0 1019.9 0.2
22/08:00pm 14.0 11.6 7.1 63 3.4 WSW 9 15 5 8 1020.0 1019.9 0.2
22/07:30pm 14.8 11.2 6.9 59 3.9 WSW 15 26 8 14 1019.6 1019.5 0.2
22/07:00pm 15.6 11.1 6.9 56 4.3 SW 20 32 11 17 1019.1 1019.0 0.2
22/06:30pm 16.1 11.8 7.1 55 4.5 WSW 19 26 10 14 1018.2 1018.1 0.2
22/06:00pm 16.2 12.3 7.2 55 4.5 WSW 17 24 9 13 1017.7 1017.6 0.2
22/05:30pm 16.4 13.2 6.8 53 4.7 WSW 13 19 7 10 1017.2 1017.1 0.2
22/05:00pm 18.0 14.0 6.5 47 5.7 WSW 17 22 9 12 1016.9 1016.8 0.2
22/04:30pm 19.6 15.6 6.7 43 6.5 WSW 17 26 9 14 1016.7 1016.6 0.2
22/04:00pm 20.6 16.4 5.8 38 7.4 WSW 17 30 9 16 1016.4 1016.3 0.2
22/03:30pm 21.0 16.1 5.0 35 7.9 SW 20 33 11 18 1016.0 1015.9 0.2
22/03:00pm 21.2 15.7 3.9 32 8.3 WSW 22 35 12 19 1015.9 1015.8 0.2
22/02:30pm 21.9 16.9 6.6 37 7.8 SW 22 35 12 19 1015.7 1015.6 0.2
22/02:00pm 22.0 17.2 5.4 34 8.3 SW 20 33 11 18 1015.8 1015.7 0.2
22/01:30pm 22.4 17.6 4.9 32 8.7 SW 19 28 10 15 1015.9 1015.8 0.2
22/01:00pm 21.8 16.8 6.5 37 7.8 SW 22 35 12 19 1016.1 1016.0 0.2
22/12:30pm 21.9 17.6 9.4 45 6.7 SW 22 32 12 17 1016.3 1016.2 0.2
22/12:00pm 21.7 17.7 8.9 44 6.8 WSW 20 30 11 16 1016.8 1016.7 0.0
22/11:30am 21.4 17.2 8.3 43 6.9 WSW 20 32 11 17 1017.2 1017.1 0.0
22/11:00am 20.6 16.5 8.6 46 6.3 WSW 20 30 11 16 1017.5 1017.4 0.0
22/10:30am 21.0 18.5 12.2 57 4.9 SW 17 28 9 15 1017.9 1017.8 0.0
22/10:00am 19.9 17.1 11.4 58 4.7 SW 17 28 9 15 1018.2 1018.1 0.0
22/09:30am 18.3 15.8 12.3 68 3.3 SSW 17 24 9 13 1018.3 1018.2 0.0
22/09:00am 18.0 16.3 13.5 75 2.5 SW 15 22 8 12 1018.1 1018.0 1.2
22/08:30am 17.4 15.9 14.3 82 1.8 WSW 15 22 8 12 1017.9 1017.8 1.2
22/08:00am 17.2 17.1 15.0 87 1.3 WSW 9 17 5 9 1017.7 1017.6 1.2
22/07:30am 16.9 17.0 15.4 91 0.9 SW 9 15 5 8 1017.5 1017.4 1.2
22/07:00am 16.8 17.3 15.5 92 0.8 SW 7 11 4 6 1017.5 1017.4 1.2
22/06:30am 16.8 17.4 15.7 93 0.6 WSW 7 11 4 6 1017.3 1017.2 1.2
22/06:00am 17.0 17.3 15.9 93 0.6 WSW 9 13 5 7 1016.9 1016.8 1.2
22/05:30am 17.1 17.8 16.1 94 0.6 WSW 7 9 4 5 1016.5 1016.4 1.2
22/05:00am 17.1 17.4 16.0 93 0.6 SW 9 13 5 7 1016.0 1015.9 1.2
22/04:30am 17.2 17.5 16.1 93 0.7 SW 9 15 5 8 1015.8 1015.7 1.2
22/04:00am 17.3 16.8 16.0 92 0.8 SW 13 22 7 12 1016.0 1015.9 1.0
22/03:30am 17.5 16.6 15.8 90 1.0 SSW 15 24 8 13 1015.9 1015.8 0.4
22/03:00am 18.2 17.2 15.6 85 1.5 SW 15 26 8 14 1015.9 1015.8 0.2
22/02:30am 18.5 17.5 15.7 84 1.7 SSW 15 20 8 11 1015.9 1015.8 0.2
22/02:00am 19.1 19.9 17.2 89 1.2 SSW 9 15 5 8 1016.1 1016.0 0.2
22/01:30am 19.4 20.5 17.9 91 0.9 SSW 9 13 5 7 1016.3 1016.2 0.2
22/01:27am 19.5 20.7 18.2 92 0.8 SSW 9 13 5 7 1016.3 1016.2 0.2
22/01:17am 19.8 21.5 18.6 93 0.7 SSW 7 13 4 7 1016.3 1016.2 0.2
22/01:15am 19.8 21.5 18.6 93 0.7 SSW 7 13 4 7 1016.3 1016.2 0.2
22/01:00am 19.8 20.8 18.6 93 0.7 SSW 11 13 6 7 1016.4 1016.3 0.2
22/12:30am 20.1 21.2 18.9 93 0.8 S 11 15 6 8 1016.5 1016.4 0.2
22/12:13am 20.4 21.5 19.6 95 0.5 SSW 13 20 7 11 1016.7 1016.6 0.2
22/12:00am 20.5 22.4 19.7 95 0.5 SW 9 11 5 6 1016.6 1016.5 0.2
 
Date/Time
EST
Temp
°C
App
Temp
°C
Dew
Point
Rel
Hum
%
Delta-T
°C
Wind Press
QNH
hPa
Press
MSL
hPa
Rain
since 9 am
mm
Dir
 
Spd
km/h
Gust
km/h
Spd
kts
Gust
kts
21/11:45pm 20.5 22.9 19.7 95 0.5 SW 6 7 3 4 1016.7 1016.6 0.2
21/11:30pm 20.6 22.6 19.9 96 0.4 WSW 9 11 5 6 1016.9 1016.8 0.2
21/11:00pm 20.3 23.0 19.5 95 0.5 S 4 7 2 4 1017.1 1017.0 0.2
21/10:30pm 20.0 21.6 19.2 95 0.5 SSW 9 11 5 6 1017.2 1017.1 0.2
21/10:29pm 20.2 21.9 19.4 95 0.5 SSW 9 11 5 6 1017.3 1017.2 0.2
21/10:00pm 20.0 23.2 18.8 93 0.7 CALM 0 0 0 0 1017.5 1017.4 0.2
21/09:30pm 19.9 21.8 18.6 92 0.8 NE 6 6 3 3 1017.6 1017.5 0.2
21/09:00pm 20.5 22.8 19.5 94 0.6 NE 6 9 3 5 1017.3 1017.2 0.2
21/08:30pm 20.2 22.2 18.7 91 0.9 ENE 6 7 3 4 1017.1 1017.0 0.2
21/08:00pm 20.5 23.8 19.0 91 0.9 CALM 0 0 0 0 1017.0 1016.9 0.2
21/07:30pm 21.7 25.4 20.0 90 1.1 CALM 0 0 0 0 1017.0 1016.9 0.2
21/07:00pm 21.8 25.6 20.1 90 1.1 CALM 0 6 0 3 1016.9 1016.8 0.2
21/06:30pm 22.0 24.6 20.1 89 1.2 NW 6 9 3 5 1016.7 1016.6 0.2
21/06:00pm 22.1 23.8 20.2 89 1.2 N 11 17 6 9 1016.4 1016.3 0.2
21/05:30pm 22.4 23.8 20.3 88 1.4 N 13 19 7 10 1016.2 1016.1 0.2
21/05:00pm 22.7 24.6 20.6 88 1.4 NNE 11 15 6 8 1015.9 1015.8 0.2
21/04:30pm 23.0 25.2 20.5 86 1.6 NNE 9 15 5 8 1015.7 1015.6 0.2
21/04:00pm 23.3 25.4 20.2 83 2.0 NNE 9 13 5 7 1015.6 1015.5 0.2
21/03:30pm 23.3 25.3 19.9 81 2.2 N 9 13 5 7 1015.6 1015.5 0.2
21/03:00pm 23.8 25.1 19.3 76 2.9 N 11 19 6 10 1015.6 1015.5 0.2
21/02:30pm 24.9 26.3 20.4 76 2.9 N 13 19 7 10 1015.5 1015.4 0.2
21/02:00pm 24.8 26.1 20.1 75 3.0 N 13 19 7 10 1015.7 1015.6 0.2
21/01:30pm 25.1 26.4 20.1 74 3.2 NNW 13 22 7 12 1016.0 1015.9 0.2
21/01:00pm 25.5 26.4 20.1 72 3.5 N 15 19 8 10 1016.3 1016.2 0.2
21/12:30pm 24.6 25.9 20.1 76 2.9 N 13 17 7 9 1017.1 1017.0 0.2
21/12:00pm 25.3 26.6 20.1 73 3.4 NNW 13 19 7 10 1017.7 1017.6 0.2
21/11:57am 25.5 27.4 20.5 74 3.3 N 11 20 6 11 1017.7 1017.6 0.2
21/11:30am 25.1 27.5 20.8 77 2.8 N 9 15 5 8 1018.2 1018.1 0.2
21/11:00am 24.1 25.3 20.0 78 2.6 NNW 13 19 7 10 1018.5 1018.4 0.2
21/10:46am 24.3 25.9 20.0 77 2.8 N 11 17 6 9 1018.7 1018.6 0.0
21/10:37am 23.8 25.8 19.9 79 2.5 N 9 13 5 7 1018.8 1018.7 0.0
21/10:30am 23.9 25.7 19.6 77 2.8 NNW 9 13 5 7 1019.0 1018.9 0.0
21/10:00am 23.6 25.8 19.7 79 2.5 NE 7 11 4 6 1019.2 1019.1 0.0
21/09:30am 22.5 25.0 19.9 85 1.7 E 6 9 3 5 1019.5 1019.4 0.0
21/09:00am 21.5 25.1 19.8 90 1.1 CALM 0 0 0 0 1019.6 1019.5 0.0
21/08:30am 20.4 22.1 19.4 94 0.6 SSW 9 11 5 6 1019.5 1019.4 0.0
21/08:00am 19.2 22.2 18.4 95 0.5 CALM 0 0 0 0 1019.3 1019.2 0.0
21/07:52am 19.1 22.1 18.4 96 0.4 CALM 0 0 0 0 1019.3 1019.2 0.0
21/07:39am 18.8 21.7 18.1 96 0.4 CALM 0 0 0 0 1019.3 1019.2 0.0
21/07:30am 18.6 21.4 17.9 96 0.4 CALM 0 0 0 0 1019.2 1019.1 0.0
21/07:00am 18.2 20.8 17.6 96 0.4 CALM 0 4 0 2 1018.7 1018.6 0.0
21/06:30am 18.0 19.4 17.4 96 0.4 SSW 6 9 3 5 1018.7 1018.6 0.0
21/06:00am 17.9 19.3 17.3 96 0.4 SW 6 9 3 5 1018.7 1018.6 0.0
21/05:53am 17.8 18.9 17.2 96 0.4 SW 7 11 4 6 1018.6 1018.5 0.0
21/05:30am 17.7 19.0 17.1 96 0.4 WSW 6 7 3 4 1018.1 1018.0 0.0
21/05:00am 17.4 18.4 16.9 97 0.3 SSW 7 9 4 5 1017.9 1017.8 0.0
21/04:30am 16.5 18.4 15.7 95 0.5 CALM 0 0 0 0 1017.9 1017.8 0.0
21/04:06am 16.2 18.0 15.4 95 0.5 CALM 0 0 0 0 1017.7 1017.6 0.0
21/04:00am 16.0 17.6 15.0 94 0.6 CALM 0 0 0 0 1017.7 1017.6 0.0
21/03:57am 16.0 17.6 15.0 94 0.6 CALM 0 0 0 0 1017.6 1017.5 0.0
21/03:46am 16.0 17.6 14.9 93 0.6 CALM 0 0 0 0 1017.6 1017.5 0.0
21/03:30am 16.6 18.4 15.6 94 0.6 CALM 0 0 0 0 1017.7 1017.6 0.0
21/03:00am 17.1 18.5 16.5 96 0.4 SW 4 7 2 4 1018.0 1017.9 0.0
21/02:36am 17.1 18.2 16.6 97 0.3 S 6 7 3 4 1018.1 1018.0 0.0
21/02:30am 17.0 17.9 16.5 97 0.3 SSW 7 9 4 5 1018.2 1018.1 0.0
21/02:12am 15.8 16.1 15.0 95 0.5 SSW 7 9 4 5 1018.2 1018.1 0.0
21/02:00am 15.7 17.2 14.7 94 0.6 CALM 0 0 0 0 1018.2 1018.1 0.0
21/01:58am 15.7 17.2 14.7 94 0.6 CALM 0 0 0 0 1018.2 1018.1 0.0
21/01:40am 15.8 17.4 14.8 94 0.6 CALM 0 0 0 0 1018.3 1018.2 0.0
21/01:30am 15.9 17.5 14.9 94 0.6 CALM 0 0 0 0 1018.3 1018.2 0.0
21/01:28am 15.9 17.5 14.9 94 0.6 CALM 0 0 0 0 1018.3 1018.2 0.0
21/01:00am 15.8 17.4 14.8 94 0.6 CALM 0 0 0 0 1018.7 1018.6 0.0
21/12:39am 15.9 17.5 14.9 94 0.6 CALM 0 0 0 0 1018.6 1018.5 0.0
21/12:30am 16.2 17.9 15.2 94 0.6 CALM 0 0 0 0 1018.7 1018.6 0.0
21/12:00am 16.2 17.9 15.2 94 0.6 CALM 0 0 0 0 1019.0 1018.9 0.0
 
Date/Time
EST
Temp
°C
App
Temp
°C
Dew
Point
Rel
Hum
%
Delta-T
°C
Wind Press
QNH
hPa
Press
MSL
hPa
Rain
since 9 am
mm
Dir
 
Spd
km/h
Gust
km/h
Spd
kts
Gust
kts
20/11:30pm 16.5 16.9 15.4 93 0.6 NE 7 7 4 4 1019.0 1018.9 0.0
20/11:00pm 16.6 18.0 15.3 92 0.8 ENE 2 7 1 4 1019.2 1019.1 0.0
20/10:30pm 16.5 18.3 15.4 93 0.6 CALM 0 0 0 0 1019.4 1019.3 0.0
20/10:00pm 16.9 18.8 15.8 93 0.6 CALM 0 0 0 0 1019.4 1019.3 0.0
20/09:30pm 17.2 18.5 16.1 93 0.7 ENE 4 6 2 3 1019.5 1019.4 0.0
20/09:00pm 17.2 19.2 15.9 92 0.8 CALM 0 0 0 0 1019.6 1019.5 0.0
20/08:30pm 17.7 19.9 16.4 92 0.8 CALM 0 0 0 0 1019.5 1019.4 0.0

Other Formats:

Comma delimited format used in spreadsheet applications
http://www.bom.gov.au/fwo/IDQ60801/IDQ60801.95565.axf

JavaScript Object Notation format (JSON) in row-major order
http://www.bom.gov.au/fwo/IDQ60801/IDQ60801.95565.json